Latest Weather Observations for Leinster

IDW60801

Issued at 5:23 am WST Wednesday 8 December 2021 (issued every 10 minutes, with the page automatically refreshed every 10 minutes)

About weather observations | Map of weather stations | Latest weather observations for WA | Other Formats
Station Details ID: 012314 Name: LEINSTER AERO Lat: -27.84 Lon: 120.70 Height: 497.0 m
Data from the previous 72 hours. | See also: Recent months at Leinster
Date/Time
WST
Temp
°C
App
Temp
°C
Dew
Point
°C
Rel
Hum
%
Delta-T
°C
Wind Press
QNH
hPa
Press
MSL
hPa
Rain since
9am
mm
Dir  Spd
km/h
Gust
km/h
Spd
kts
Gust
kts
08/05:03am 21.4 15.7 8.3 43 7.0 ENE 28 48 15 26 1015.9 1012.4 0.2
08/05:00am 21.4 16.1 8.3 43 7.0 ENE 26 48 14 26 1016.2 1012.6 0.2
08/04:30am 21.1 15.8 9.7 48 6.3 ENE 28 39 15 21 1015.4 1011.9 0.2
08/04:00am 22.8 16.3 6.6 35 8.5 ENE 30 43 16 23 1015.6 1012.1 0.0
08/03:30am 23.2 17.1 6.5 34 8.8 ENE 28 44 15 24 1014.9 1011.3 0.0
08/03:00am 23.4 18.0 6.2 33 9.0 E 24 37 13 20 1014.9 1011.3 0.0
08/02:30am 24.0 18.2 6.3 32 9.3 E 26 41 14 22 1014.4 1010.8 0.0
08/02:00am 24.9 19.4 5.7 29 10.0 E 24 37 13 20 1015.1 1011.6 0.0
08/01:30am 26.1 21.1 4.6 25 11.1 E 20 30 11 16 1015.1 1011.6 0.0
08/01:00am 26.5 20.7 4.3 24 11.4 E 24 37 13 20 1015.0 1011.4 0.0
08/12:30am 26.5 22.4 6.0 27 10.9 ESE 17 24 9 13 1015.3 1011.8 0.0
08/12:00am 27.4 23.4 5.1 24 11.7 E 15 22 8 12 1015.8 1012.3 0.0
 
Date/Time
WST
Temp
°C
App
Temp
°C
Dew
Point
°C
Rel
Hum
%
Delta-T
°C
Wind Press
QNH
hPa
Press
MSL
hPa
Rain since
9am
mm
Dir  Spd
km/h
Gust
km/h
Spd
kts
Gust
kts
07/11:30pm 27.9 23.0 4.9 23 12.1 ENE 20 32 11 17 1014.9 1011.3 0.0
07/11:00pm 28.2 22.9 5.1 23 12.2 ENE 22 37 12 20 1014.4 1010.8 0.0
07/10:30pm 28.6 22.6 5.5 23 12.3 ENE 26 39 14 21 1013.8 1010.3 0.0
07/10:00pm 28.9 23.4 5.7 23 12.4 ENE 24 37 13 20 1013.7 1010.2 0.0
07/09:30pm 28.9 23.9 6.3 24 12.2 ENE 22 32 12 17 1014.0 1010.4 0.0
07/09:00pm 28.8 24.3 6.2 24 12.2 ENE 19 30 10 16 1013.6 1010.1 0.0
07/08:30pm 29.1 24.4 5.9 23 12.5 ENE 20 32 11 17 1013.3 1009.8 0.0
07/08:00pm 29.5 24.9 5.6 22 12.8 E 19 30 10 16 1012.9 1009.3 0.0
07/07:30pm 29.9 24.6 5.2 21 13.2 E 22 35 12 19 1012.3 1008.7 0.0
07/07:00pm 30.4 24.7 4.9 20 13.6 ESE 24 32 13 17 1012.4 1008.8 0.0
07/06:30pm 31.0 25.8 5.4 20 13.8 E 22 33 12 18 1012.3 1008.7 0.0
07/06:00pm 32.0 26.8 5.5 19 14.4 E 22 35 12 19 1012.0 1008.4 0.0
07/05:30pm 32.4 26.7 5.1 18 14.7 ENE 24 35 13 19 1012.0 1008.4 0.0
07/05:00pm 33.1 27.0 4.8 17 15.3 ENE 26 37 14 20 1012.0 1008.4 0.0
07/04:30pm 33.7 28.1 5.3 17 15.5 ENE 24 37 13 20 1011.9 1008.3 0.0
07/04:00pm 33.7 27.3 5.3 17 15.5 ENE 28 37 15 20 1011.9 1008.3 0.0
07/03:30pm 33.1 27.3 6.4 19 14.8 E 26 41 14 22 1011.9 1008.3 0.0
07/03:00pm 33.7 27.8 7.6 20 14.8 E 28 39 15 21 1012.0 1008.4 0.0
07/02:30pm 33.4 28.0 8.1 21 14.4 E 26 39 14 21 1012.3 1008.7 0.0
07/02:00pm 33.6 27.9 8.3 21 14.5 E 28 46 15 25 1012.3 1008.7 0.0
07/01:57pm 33.7 28.2 9.0 22 14.3 E 28 46 15 25 1012.3 1008.7 0.0
07/01:30pm 34.1 28.9 8.7 21 14.6 ENE 26 39 14 21 1012.5 1008.9 0.0
07/01:00pm 33.2 28.1 9.3 23 13.9 ENE 26 44 14 24 1012.7 1009.1 0.0
07/12:30pm 31.9 26.5 9.4 25 13.0 ENE 28 39 15 21 1013.3 1009.8 0.0
07/12:00pm 30.8 25.0 9.6 27 12.2 ENE 30 41 16 22 1013.6 1010.1 0.0
07/11:30am 29.9 25.0 9.9 29 11.5 E 26 43 14 23 1014.0 1010.4 0.0
07/11:00am 30.9 25.7 10.3 28 12.0 E 28 41 15 22 1014.4 1010.8 0.0
07/10:30am 30.1 24.9 10.1 29 11.6 ENE 28 46 15 25 1014.5 1010.9 0.0
07/10:29am 29.7 24.5 10.3 30 11.2 ENE 28 46 15 25 1014.5 1010.9 0.0
07/10:00am 29.4 23.8 10.0 30 11.2 E 30 44 16 24 1014.5 1010.9 0.0
07/09:42am 29.6 24.3 9.7 29 11.4 ENE 28 46 15 25 1014.7 1011.1 0.0
07/09:30am 28.8 23.8 9.5 30 11.0 ENE 26 37 14 20 1014.7 1011.1 0.0
07/09:00am 28.7 23.9 10.4 32 10.6 ENE 26 39 14 21 1014.3 1010.7 2.0
07/08:44am 27.5 22.3 10.2 34 9.9 E 28 48 15 26 1014.2 1010.6 2.0
07/08:30am 27.7 22.1 10.0 33 10.1 ENE 30 43 16 23 1014.5 1010.9 2.0
07/08:00am 26.9 20.4 10.2 35 9.5 ENE 35 44 19 24 1013.8 1010.3 2.0
07/07:47am 26.2 21.0 10.4 37 9.0 ENE 28 46 15 25 1013.6 1010.1 2.0
07/07:30am 25.6 18.9 9.8 37 8.9 ENE 35 50 19 27 1013.6 1010.1 2.0
07/07:01am 25.5 19.4 10.5 39 8.6 ENE 33 52 18 28 1013.7 1010.2 2.0
07/07:00am 25.4 19.0 10.8 40 8.4 ENE 35 52 19 28 1013.7 1010.2 2.0
07/06:53am 25.6 19.6 10.2 38 8.7 ENE 32 50 17 27 1013.7 1010.2 2.0
07/06:30am 24.8 20.0 10.3 40 8.2 ENE 26 39 14 21 1014.0 1010.4 2.0
07/06:00am 24.4 21.2 9.9 40 8.1 E 17 30 9 16 1013.7 1010.2 2.0
07/05:30am 24.2 21.0 9.8 40 8.1 E 17 24 9 13 1013.5 1010.0 2.0
07/05:00am 23.9 21.7 9.5 40 8.0 E 11 17 6 9 1013.2 1009.6 2.0
07/04:30am 23.8 21.0 10.1 42 7.7 E 15 24 8 13 1012.6 1009.0 2.0
07/04:00am 23.9 21.0 9.5 40 8.0 ENE 15 22 8 12 1012.2 1008.6 2.0
07/03:30am 23.5 21.4 9.9 42 7.6 E 11 15 6 8 1012.2 1008.6 2.0
07/03:00am 24.3 22.4 9.1 38 8.4 E 9 13 5 7 1012.2 1008.6 2.0
07/02:30am 24.3 22.5 9.5 39 8.2 E 9 11 5 6 1011.6 1008.1 2.0
07/02:00am 25.2 23.0 9.5 37 8.8 ENE 11 13 6 7 1011.4 1007.9 2.0
07/01:30am 25.7 22.3 9.1 35 9.3 ENE 17 24 9 13 1010.9 1007.3 2.0
07/01:00am 25.4 22.4 10.8 40 8.4 ENE 17 22 9 12 1010.5 1006.9 1.8
07/12:30am 25.8 23.4 12.6 44 7.8 E 17 20 9 11 1010.3 1006.7 1.8
07/12:00am 26.4 25.0 13.5 45 7.8 E 13 17 7 9 1010.7 1007.1 1.8
 
Date/Time
WST
Temp
°C
App
Temp
°C
Dew
Point
°C
Rel
Hum
%
Delta-T
°C
Wind Press
QNH
hPa
Press
MSL
hPa
Rain since
9am
mm
Dir  Spd
km/h
Gust
km/h
Spd
kts
Gust
kts
06/11:30pm 26.6 25.9 13.3 43 8.0 ENE 9 15 5 8 1011.6 1008.1 1.8
06/11:00pm 26.8 25.8 14.5 46 7.5 WNW 13 19 7 10 1013.0 1009.4 1.8
06/10:30pm 25.8 26.9 18.0 62 5.0 WSW 9 13 5 7 1013.3 1009.8 1.8
06/10:00pm 26.4 27.4 15.4 50 6.8 ENE 4 7 2 4 1012.3 1008.7 1.8
06/09:30pm 26.7 26.0 15.4 50 7.0 ENE 13 17 7 9 1011.5 1008.0 1.8
06/09:00pm 26.8 26.5 15.5 50 7.0 NE 11 17 6 9 1011.9 1008.3 1.8
06/08:30pm 27.0 26.2 15.1 48 7.4 ENE 13 19 7 10 1011.1 1007.5 1.8
06/08:00pm 27.2 26.4 15.2 47 7.4 NE 13 19 7 10 1010.8 1007.2 1.8
06/07:30pm 27.6 27.3 14.3 44 8.1 ENE 9 11 5 6 1010.6 1007.0 1.8
06/07:00pm 27.9 26.3 13.8 42 8.6 ENE 15 20 8 11 1010.5 1006.9 1.8
06/06:30pm 28.0 26.1 14.3 43 8.4 NE 17 22 9 12 1010.7 1007.1 1.8
06/06:00pm 27.0 26.6 16.3 52 6.7 N 13 19 7 10 1010.6 1007.0 1.8
06/05:59pm 27.1 26.4 15.5 49 7.2 N 13 19 7 10 1010.6 1007.0 1.8
06/05:30pm 24.3 19.8 17.3 65 4.4 NW 37 78 20 42 1010.3 1006.7 1.8
06/05:22pm 25.1 20.2 15.4 55 6.0 NNW 35 65 19 35 1009.2 1005.6 0.8
06/05:21pm 26.3 22.0 15.4 51 6.8 NNW 32 50 17 27 1009.4 1005.8 0.6
06/05:20pm 27.6 23.1 13.9 43 8.3 NNW 30 50 16 27 1009.5 1005.9 0.6
06/05:14pm 31.2 28.6 12.1 31 11.5 NE 17 41 9 22 1009.9 1006.3 0.4
06/05:00pm 35.4 32.4 5.8 16 16.4 ESE 11 20 6 11 1008.8 1005.2 0.4
06/04:30pm 35.9 30.8 4.2 14 17.2 SE 20 30 11 16 1008.2 1004.6 0.4
06/04:00pm 36.7 31.9 4.9 14 17.5 E 19 30 10 16 1007.9 1004.3 0.4
06/03:30pm 37.3 32.4 5.3 14 17.8 ESE 20 33 11 18 1007.9 1004.3 0.4
06/03:00pm 36.9 32.2 6.0 15 17.3 ENE 20 32 11 17 1008.7 1005.1 0.4
06/02:30pm 37.5 34.4 7.4 16 17.3 NNE 13 26 7 14 1009.1 1005.5 0.4
06/02:00pm 36.8 33.0 5.9 15 17.3 ENE 15 26 8 14 1009.4 1005.8 0.4
06/01:30pm 36.7 33.9 6.8 16 16.9 N 11 24 6 13 1009.9 1006.3 0.4
06/01:00pm 36.1 32.4 6.3 16 16.7 ESE 15 20 8 11 1010.3 1006.7 0.4
06/12:30pm 36.0 33.1 8.0 18 16.1 ENE 13 22 7 12 1010.6 1007.0 0.4
06/12:00pm 34.8 31.2 8.5 20 15.2 NE 17 26 9 14 1010.7 1007.1 0.4
06/11:30am 33.9 30.2 7.8 20 14.8 E 17 32 9 17 1011.1 1007.5 0.4
06/11:00am 31.4 28.2 11.2 29 12.0 E 19 28 10 15 1011.1 1007.5 0.2
06/10:30am 32.8 29.4 7.6 21 14.2 E 15 28 8 15 1012.0 1008.4 0.0
06/10:00am 34.4 29.8 8.2 20 15.0 ENE 22 32 12 17 1011.9 1008.3 0.0
06/09:30am 32.8 28.7 10.2 25 13.3 ENE 22 32 12 17 1012.0 1008.4 0.0
06/09:00am 31.8 27.6 9.9 26 12.7 ENE 22 33 12 18 1012.3 1008.7 0.0
06/08:30am 31.1 27.3 9.9 27 12.3 ENE 20 30 11 16 1012.5 1008.9 0.0
06/08:00am 29.8 25.8 10.4 30 11.3 NE 22 32 12 17 1012.3 1008.7 0.0
06/07:30am 29.0 24.5 10.2 31 10.8 ENE 24 33 13 18 1012.2 1008.6 0.0
06/07:00am 27.5 22.9 9.8 33 10.1 ENE 24 33 13 18 1012.0 1008.4 0.0
06/06:30am 26.4 22.7 9.3 34 9.6 ENE 19 32 10 17 1011.7 1008.2 0.0
06/06:00am 24.6 21.6 7.7 34 9.2 ENE 13 17 7 9 1011.5 1008.0 0.0
06/05:30am 22.9 20.4 6.6 35 8.6 E 9 15 5 8 1011.1 1007.5 0.0
06/05:00am 22.2 19.7 6.4 36 8.2 E 9 11 5 6 1010.9 1007.3 0.0
06/04:30am 22.7 20.1 6.0 34 8.7 ENE 9 13 5 7 1010.5 1006.9 0.0
06/04:00am 23.6 20.9 5.5 31 9.4 E 9 13 5 7 1010.2 1006.6 0.0
06/03:30am 23.8 20.7 5.7 31 9.4 ESE 11 15 6 8 1010.0 1006.4 0.0
06/03:00am 23.9 21.1 5.3 30 9.6 ESE 9 13 5 7 1009.3 1005.7 0.0
06/02:30am 24.6 21.5 5.4 29 10.0 ESE 11 13 6 7 1009.3 1005.7 0.0
06/02:00am 24.6 22.4 6.4 31 9.6 E 7 11 4 6 1009.4 1005.8 0.0
06/01:30am 25.7 23.1 6.3 29 10.3 E 9 11 5 6 1009.6 1006.1 0.0
06/01:00am 25.8 22.9 6.4 29 10.3 ENE 11 17 6 9 1009.6 1006.1 0.0
06/12:30am 25.8 22.9 6.4 29 10.3 ENE 11 20 6 11 1009.8 1006.2 0.0
06/12:00am 26.5 24.0 6.5 28 10.7 E 9 13 5 7 1009.8 1006.2 0.0
 
Date/Time
WST
Temp
°C
App
Temp
°C
Dew
Point
°C
Rel
Hum
%
Delta-T
°C
Wind Press
QNH
hPa
Press
MSL
hPa
Rain since
9am
mm
Dir  Spd
km/h
Gust
km/h
Spd
kts
Gust
kts
05/11:30pm 27.1 24.2 6.5 27 11.1 E 11 13 6 7 1009.9 1006.3 0.0
05/11:00pm 27.8 24.9 6.6 26 11.5 E 11 13 6 7 1010.2 1006.6 0.0
05/10:30pm 28.4 25.6 7.1 26 11.6 E 11 17 6 9 1010.2 1006.6 0.0
05/10:00pm 29.0 26.4 7.6 26 11.8 E 11 15 6 8 1010.6 1007.0 0.0
05/09:30pm 29.2 26.1 7.2 25 12.1 ENE 13 15 7 8 1010.6 1007.0 0.0
05/09:00pm 30.0 27.8 7.8 25 12.4 E 9 13 5 7 1010.4 1006.8 0.0
05/08:30pm 30.0 27.4 7.8 25 12.4 NNE 11 13 6 7 1010.3 1006.7 0.0
05/08:00pm 32.0 29.0 6.2 20 14.2 ENE 11 17 6 9 1010.1 1006.5 0.0
05/07:30pm 32.5 30.2 7.4 21 14.1 ENE 9 11 5 6 1010.0 1006.4 0.0
05/07:00pm 33.8 30.8 6.2 18 15.3 E 11 15 6 8 1009.8 1006.2 0.0
05/06:30pm 34.2 31.1 7.3 19 15.2 NNE 13 17 7 9 1009.5 1005.9 0.0
05/06:00pm 35.2 32.9 7.3 18 15.8 ENE 9 17 5 9 1009.3 1005.7 0.0
05/05:30pm 35.3 32.0 6.6 17 16.1 SW 13 19 7 10 1009.2 1005.6 0.0
05/05:00pm 35.8 33.4 7.0 17 16.3 NE 9 17 5 9 1009.1 1005.5 0.0
05/04:30pm 34.8 32.2 6.2 17 15.9 ENE 9 13 5 7 1009.1 1005.5 0.0
05/04:00pm 35.8 32.8 7.8 18 16.1 ENE 13 20 7 11 1009.3 1005.7 0.0
05/03:30pm 35.9 32.4 7.0 17 16.4 NNE 15 28 8 15 1009.4 1005.8 0.0
05/03:00pm 35.9 32.2 7.9 18 16.1 N 17 24 9 13 1009.6 1006.1 0.0
05/02:30pm 35.0 31.3 7.9 19 15.5 ENE 17 28 9 15 1010.2 1006.6 0.0
05/02:00pm 34.7 31.5 6.9 18 15.6 ENE 13 22 7 12 1010.6 1007.0 0.0
05/01:30pm 34.5 32.2 9.0 21 14.8 ENE 11 28 6 15 1011.1 1007.5 0.0
05/01:00pm 34.0 31.0 9.3 22 14.4 ENE 15 30 8 16 1011.5 1008.0 0.0
05/12:30pm 33.3 29.7 10.0 24 13.7 NE 19 28 10 15 1012.1 1008.5 0.0
05/12:00pm 32.5 29.1 9.3 24 13.4 ENE 17 26 9 14 1012.6 1009.0 0.0
05/11:30am 32.3 28.8 10.9 27 12.7 E 20 32 11 17 1013.1 1009.5 0.0
05/11:00am 30.9 27.5 11.3 30 11.6 E 20 33 11 18 1013.5 1010.0 0.0
05/10:30am 29.8 27.0 12.7 35 10.3 E 19 28 10 15 1014.0 1010.4 0.0
05/10:00am 28.9 26.5 13.9 39 9.2 E 19 26 10 14 1014.3 1010.7 0.0
05/09:30am 27.2 25.5 13.5 42 8.3 NE 15 20 8 11 1014.6 1011.0 0.0
05/09:00am 26.9 24.9 14.0 45 7.8 ENE 17 26 9 14 1015.0 1011.4 4.0
05/08:30am 25.4 23.5 14.2 50 6.8 ENE 17 22 9 12 1015.1 1011.6 4.0
05/08:00am 24.0 22.8 15.0 57 5.5 ENE 15 20 8 11 1015.3 1011.8 4.0
05/07:30am 23.1 21.1 14.9 60 5.0 ENE 19 24 10 13 1015.3 1011.8 4.0
05/07:00am 22.3 19.7 14.9 63 4.5 ENE 22 30 12 16 1015.3 1011.8 4.0
05/06:30am 21.7 19.5 14.8 65 4.2 ENE 20 30 11 16 1015.2 1011.7 4.0
05/06:00am 21.1 19.5 15.0 68 3.7 ENE 17 24 9 13 1014.9 1011.3 4.0
05/05:30am 20.2 18.1 14.6 70 3.3 E 19 26 10 14 1014.6 1011.0 3.8

Other formats

Comma delimited format used in spreadsheet applications
http://www.bom.gov.au/fwo/IDW60801/IDW60801.95448.axf

JavaScript Object Notation format (JSON) in row-major order
http://www.bom.gov.au/fwo/IDW60801/IDW60801.95448.json

Data quality

Most of these data are generated automatically and are frequently updated. Quality checks on data are not normally performed. It is possible for incorrect values to appear. Refer to information at About Latest Weather Observations and please check the disclaimer before using these data.